Time;durP1;ratioP1;P1;durP2;ratioP2;P2;SDS_P1;SDS_P2;PMS_P1;PMS_P2;Temp;Humidity;BMP_temperature;BMP_pressure;BME280_temperature;BME280_humidity;BME280_pressure;Samples;Min_cycle;Max_cycle;Signal;HPM_P1;HPM_P2
2021/09/23 00:00:28;;;;;;;0.10;0.10;;;;;;;15.94;58.67;102343.63;5050524;28;20040;-83
2021/09/23 00:05:40;;;;;;;0.10;0.10;;;;;;;15.94;58.61;102340.94;5090696;28;20406;-79
2021/09/23 00:08:08;;;;;;;0.15;0.15;;;;;;;15.92;58.78;102340.09;5051304;28;20029;-81
2021/09/23 00:10:39;;;;;;;0.10;0.10;;;;;;;15.90;59.21;102328.53;5051459;28;20033;-82
2021/09/23 00:13:09;;;;;;;;;;;;;;;15.99;58.95;102333.72;5067012;28;20511;-81
2021/09/23 00:15:37;;;;;;;0.35;0.35;;;;;;;15.87;59.54;102323.25;5049965;28;19924;-82
2021/09/23 00:18:11;;;;;;;0.10;0.10;;;;;;;15.88;59.57;102320.53;5051141;28;20357;-83
2021/09/23 00:20:41;;;;;;;0.75;0.35;;;;;;;15.85;59.70;102320.63;5051424;28;20449;-84
2021/09/23 00:23:09;;;;;;;0.30;0.30;;;;;;;15.88;59.47;102325.03;5050961;28;20424;-82
2021/09/23 00:25:36;;;;;;;0.20;0.20;;;;;;;15.90;59.41;102318.75;5066063;28;20037;-80
2021/09/23 00:28:05;;;;;;;0.32;0.32;;;;;;;15.92;59.02;102316.03;5051275;28;20026;-91
2021/09/23 00:30:32;;;;;;;0.10;0.10;;;;;;;15.92;59.10;102314.22;5039701;28;20025;-81
2021/09/23 00:32:58;;;;;;;0.40;0.40;;;;;;;15.90;59.33;102301.81;5031070;28;20021;-85
2021/09/23 00:35:25;;;;;;;0.28;0.28;;;;;;;15.88;59.62;102299.16;5047224;28;20033;-82
2021/09/23 00:37:52;;;;;;;1.25;1.10;;;;;;;15.88;59.50;102298.28;5036364;28;20026;-83
2021/09/23 00:40:20;;;;;;;0.13;0.13;;;;;;;15.84;59.53;102293.00;5041517;28;20029;-81
2021/09/23 00:42:47;;;;;;;0.50;0.50;;;;;;;15.84;58.94;102287.66;5043956;28;20067;-81
2021/09/23 00:45:16;;;;;;;0.10;0.10;;;;;;;15.83;58.82;102291.22;5033912;28;20060;-83
2021/09/23 00:47:43;;;;;;;0.60;0.60;;;;;;;15.78;59.84;102295.75;5046114;28;20053;-83
2021/09/23 00:50:11;;;;;;;3.10;1.65;;;;;;;15.79;59.62;102289.50;5038354;28;20049;-84
2021/09/23 00:52:39;;;;;;;0.25;0.25;;;;;;;15.79;59.32;102294.84;5037932;28;20030;-83
2021/09/23 00:55:07;;;;;;;0.20;0.20;;;;;;;15.80;59.19;102299.28;5045969;28;20139;-81
2021/09/23 00:57:35;;;;;;;0.13;0.13;;;;;;;15.82;59.15;102309.97;5034605;28;20476;-84
2021/09/23 01:00:03;;;;;;;0.00;0.00;;;;;;;15.83;59.17;102311.75;5032814;28;20037;-84
2021/09/23 01:02:29;;;;;;;1.75;1.65;;;;;;;15.84;59.28;102305.50;5040870;28;20037;-83
2021/09/23 01:04:56;;;;;;;0.10;0.10;;;;;;;15.85;58.98;102297.44;5034851;28;20397;-83
2021/09/23 01:07:22;;;;;;;0.00;0.00;;;;;;;15.86;58.81;102290.28;5030276;28;20037;-81
2021/09/23 01:09:52;;;;;;;0.25;0.25;;;;;;;15.84;59.45;102287.66;5037693;28;20044;-81
2021/09/23 01:12:21;;;;;;;0.10;0.10;;;;;;;15.80;59.70;102285.03;5039183;28;20032;-90
2021/09/23 01:14:48;;;;;;;0.65;0.65;;;;;;;15.80;59.60;102274.34;5048631;28;20503;-87
2021/09/23 01:17:16;;;;;;;0.10;0.10;;;;;;;15.77;59.27;102274.41;5019593;28;20034;-86
2021/09/23 01:19:45;;;;;;;0.68;0.68;;;;;;;15.76;59.93;102277.97;5030522;28;20061;-91
2021/09/23 01:22:14;;;;;;;0.77;0.63;;;;;;;15.77;59.68;102280.63;5025078;28;20092;-88
2021/09/23 01:24:41;;;;;;;0.82;0.80;;;;;;;15.76;59.43;102281.53;5024143;28;20048;-85
2021/09/23 01:27:09;;;;;;;0.77;0.77;;;;;;;15.73;60.17;102270.03;5032593;28;20022;-89
2021/09/23 01:29:37;;;;;;;1.02;0.63;;;;;;;15.76;60.11;102264.63;5019804;28;20427;-90
2021/09/23 01:32:05;;;;;;;0.52;0.52;;;;;;;15.72;60.12;102266.47;5036491;28;20100;-90
2021/09/23 01:34:33;;;;;;;0.15;0.15;;;;;;;15.71;60.01;102269.19;5036325;28;20028;-84
2021/09/23 01:37:00;;;;;;;0.45;0.45;;;;;;;15.72;59.78;102250.44;5021291;28;20026;-88
2021/09/23 01:39:28;;;;;;;0.63;0.63;;;;;;;15.71;59.90;102253.16;5032628;28;20029;-92
2021/09/23 01:41:55;;;;;;;2.50;0.65;;;;;;;15.67;61.14;102246.97;5022608;28;20014;-84
2021/09/23 01:44:23;;;;;;;0.28;0.28;;;;;;;15.74;60.94;102259.31;5036099;28;20033;-88
2021/09/23 01:46:50;;;;;;;0.38;0.38;;;;;;;15.70;60.70;102257.59;5020936;28;20385;-87
2021/09/23 01:49:16;;;;;;;0.25;0.25;;;;;;;15.75;60.71;102254.84;5023176;28;20113;-91
2021/09/23 01:51:43;;;;;;;0.20;0.20;;;;;;;15.77;59.58;102251.22;5020576;28;20449;-91
2021/09/23 01:54:10;;;;;;;0.88;0.88;;;;;;;15.74;59.68;102245.06;5028104;28;20030;-85
2021/09/23 01:56:36;;;;;;;0.65;0.65;;;;;;;15.76;60.24;102245.91;5028154;28;20025;-85
2021/09/23 01:59:03;;;;;;;0.10;0.10;;;;;;;15.77;60.22;102237.88;5020682;28;20026;-92
2021/09/23 02:01:30;;;;;;;0.63;0.63;;;;;;;15.76;60.38;102230.75;5018642;28;20048;-89
2021/09/23 02:03:56;;;;;;;0.30;0.30;;;;;;;15.73;60.62;102219.28;5035882;28;20033;-92
2021/09/23 02:06:24;;;;;;;1.60;1.50;;;;;;;15.72;60.93;102213.03;5025766;28;20030;-92
2021/09/23 02:08:50;;;;;;;3.80;1.52;;;;;;;15.70;60.96;102209.50;5029692;28;20025;-91
2021/09/23 02:11:17;;;;;;;0.15;0.15;;;;;;;15.66;62.08;102202.47;5034924;28;20026;-90
2021/09/23 02:13:43;;;;;;;3.13;2.75;;;;;;;15.69;61.31;102202.41;5020143;28;20461;-89
2021/09/23 02:16:09;;;;;;;1.27;1.27;;;;;;;15.63;62.34;102192.72;5027021;28;20033;-92
2021/09/23 02:18:40;;;;;;;1.80;1.08;;;;;;;15.74;61.82;102181.81;5027171;28;20025;-90
2021/09/23 02:21:07;;;;;;;0.20;0.20;;;;;;;15.67;62.37;102177.50;5019600;28;20112;-92
2021/09/23 02:23:33;;;;;;;0.30;0.30;;;;;;;15.66;62.07;102170.41;5031622;28;20030;-88
2021/09/23 02:26:00;;;;;;;0.28;0.28;;;;;;;15.65;62.24;102172.19;5022182;28;20457;-89
2021/09/23 02:28:26;;;;;;;0.52;0.40;;;;;;;15.65;61.96;102164.19;5023752;28;20145;-91
2021/09/23 02:30:53;;;;;;;2.63;1.17;;;;;;;15.60;62.68;102160.72;5029655;28;20105;-92
2021/09/23 02:33:19;;;;;;;0.10;0.10;;;;;;;15.54;62.83;102150.16;5018663;28;20034;-90
2021/09/23 02:35:45;;;;;;;0.38;0.38;;;;;;;15.58;61.86;102148.31;5030297;28;20373;-90
2021/09/23 02:38:13;;;;;;;0.43;0.43;;;;;;;15.58;62.94;102151.00;5023250;28;20090;-90
2021/09/23 02:40:39;;;;;;;0.22;0.22;;;;;;;15.53;63.26;102141.25;5035395;28;20056;-89
2021/09/23 02:43:06;;;;;;;0.10;0.10;;;;;;;15.60;62.76;102138.47;5019082;28;20022;-92
2021/09/23 02:45:32;;;;;;;0.22;0.22;;;;;;;15.59;61.92;102137.59;5031466;28;20473;-89
2021/09/23 02:47:59;;;;;;;1.25;1.25;;;;;;;15.57;63.03;102136.72;5021778;28;20029;-91
2021/09/23 02:50:26;;;;;;;0.45;0.45;;;;;;;15.57;62.41;102125.19;5025425;28;20030;-93
2021/09/23 02:52:52;;;;;;;0.10;0.10;;;;;;;15.57;62.68;102118.03;5020814;28;20416;-92
2021/09/23 02:55:18;;;;;;;0.20;0.20;;;;;;;15.52;63.10;102115.44;5031384;28;20064;-88
2021/09/23 02:57:45;;;;;;;7.68;1.30;;;;;;;15.57;62.62;102118.03;5019224;28;20029;-91
2021/09/23 03:00:11;;;;;;;0.95;0.73;;;;;;;15.57;62.96;102107.34;5026210;28;20481;-90
2021/09/23 03:02:38;;;;;;;9.07;1.50;;;;;;;15.49;63.42;102128.88;5027156;28;20037;-91
2021/09/23 03:05:05;;;;;;;0.63;0.63;;;;;;;15.54;63.95;102128.78;5018971;28;20042;-90
2021/09/23 03:07:31;;;;;;;0.65;0.65;;;;;;;15.62;63.26;102120.63;5030999;28;20066;-90
2021/09/23 03:09:57;;;;;;;0.30;0.30;;;;;;;15.57;63.05;102123.38;5021030;28;20079;-89
2021/09/23 03:12:24;;;;;;;0.10;0.10;;;;;;;15.62;62.60;102123.28;5024313;28;20044;-90
2021/09/23 03:14:50;;;;;;;1.65;0.95;;;;;;;15.63;62.27;102119.72;5014785;28;20105;-89
2021/09/23 03:17:16;;;;;;;0.38;0.38;;;;;;;15.63;63.11;102117.91;5030795;28;20518;-91
2021/09/23 03:19:43;;;;;;;0.30;0.30;;;;;;;15.65;62.67;102120.53;5014738;28;20109;-93
2021/09/23 03:22:10;;;;;;;0.63;0.63;;;;;;;15.63;64.22;102115.25;5022653;28;20099;-80
2021/09/23 03:24:36;;;;;;;0.30;0.30;;;;;;;15.65;63.49;102121.44;5022354;28;20033;-90
2021/09/23 03:27:03;;;;;;;0.50;0.50;;;;;;;15.66;63.41;102107.19;5030314;28;20048;-91
2021/09/23 03:29:29;;;;;;;5.10;1.10;;;;;;;15.65;63.38;102101.84;5018002;28;20018;-90
2021/09/23 03:31:55;;;;;;;0.10;0.10;;;;;;;15.65;63.52;102104.50;5027982;28;20030;-92
2021/09/23 03:34:21;;;;;;;0.45;0.45;;;;;;;15.65;63.35;102099.16;5024092;28;20155;-90
2021/09/23 03:36:48;;;;;;;0.65;0.63;;;;;;;15.64;63.11;102097.44;5034426;28;20109;-91
2021/09/23 03:39:14;;;;;;;0.50;0.50;;;;;;;15.63;63.73;102090.31;5017495;28;20489;-90
2021/09/23 03:41:40;;;;;;;0.20;0.20;;;;;;;15.61;63.88;102092.13;5034564;28;20415;-90
2021/09/23 03:44:06;;;;;;;0.10;0.10;;;;;;;15.64;63.39;102089.41;5026245;28;20480;-93
2021/09/23 03:46:34;;;;;;;0.22;0.22;;;;;;;15.64;63.43;102087.63;5026265;28;20361;-92
2021/09/23 03:49:00;;;;;;;0.10;0.10;;;;;;;15.63;63.79;102091.19;5025728;28;20087;-92
2021/09/23 03:51:26;;;;;;;1.27;1.23;;;;;;;15.62;64.26;102093.91;5030586;28;20060;-91
2021/09/23 03:53:53;;;;;;;0.77;0.77;;;;;;;15.63;63.78;102093.00;5019662;28;20052;-92
2021/09/23 03:56:19;;;;;;;1.10;1.10;;;;;;;15.63;63.77;102096.53;5024895;28;20046;-89
2021/09/23 03:58:45;;;;;;;0.30;0.30;;;;;;;15.59;64.61;102100.19;5020276;28;20037;-88
2021/09/23 04:01:12;;;;;;;0.00;0.00;;;;;;;15.62;63.38;102100.13;5031231;28;20488;-92
2021/09/23 04:03:38;;;;;;;0.30;0.30;;;;;;;15.62;64.40;102104.59;5033396;28;20056;-89
2021/09/23 04:06:05;;;;;;;1.10;1.00;;;;;;;15.61;65.10;102100.16;5026149;28;20036;-92
2021/09/23 04:08:31;;;;;;;1.95;0.88;;;;;;;15.64;64.68;102100.97;5024358;28;20040;-90
2021/09/23 04:10:58;;;;;;;0.25;0.25;;;;;;;15.66;64.81;102100.94;5019635;28;20416;-91
2021/09/23 04:13:24;;;;;;;1.30;1.20;;;;;;;15.69;64.57;102108.91;5030449;28;20026;-89
2021/09/23 04:15:51;;;;;;;0.10;0.10;;;;;;;15.70;64.20;102097.28;5018365;28;20026;-91
2021/09/23 04:18:19;;;;;;;0.00;0.00;;;;;;;15.71;64.57;102109.72;5024375;28;20465;-93
2021/09/23 04:20:47;;;;;;;0.45;0.45;;;;;;;15.71;64.35;102101.72;5027067;28;20042;-92
2021/09/23 04:23:14;;;;;;;1.02;0.88;;;;;;;15.73;63.63;102101.69;5025815;28;20041;-91
2021/09/23 04:25:41;;;;;;;0.20;0.20;;;;;;;15.73;63.77;102094.56;5017470;28;20034;-92
2021/09/23 04:28:08;;;;;;;0.70;0.70;;;;;;;15.74;64.02;102093.66;5016534;28;20469;-89
2021/09/23 04:30:35;;;;;;;0.20;0.20;;;;;;;15.73;64.77;102081.19;5025594;28;20087;-92
2021/09/23 04:33:02;;;;;;;0.68;0.68;;;;;;;15.72;65.51;102068.75;5018713;28;20081;-89
2021/09/23 04:35:28;;;;;;;0.20;0.20;;;;;;;15.72;65.89;102063.41;5029933;28;20026;-84
2021/09/23 04:37:54;;;;;;;0.28;0.28;;;;;;;15.74;64.22;102061.56;5020099;28;20117;-85
2021/09/23 04:40:20;;;;;;;0.38;0.38;;;;;;;15.74;64.76;102050.88;5023648;28;20026;-86
2021/09/23 04:42:47;;;;;;;0.13;0.13;;;;;;;15.74;64.72;102045.53;5026471;28;20030;-88
2021/09/23 04:45:18;;;;;;;1.13;0.60;;;;;;;15.69;66.56;102048.31;5032953;28;20035;-86
2021/09/23 04:47:44;;;;;;;0.47;0.47;;;;;;;15.67;66.27;102038.56;5013291;28;20041;-81
2021/09/23 04:50:11;;;;;;;0.10;0.10;;;;;;;15.67;66.26;102028.75;5021372;28;20388;-82
2021/09/23 04:52:37;;;;;;;0.10;0.10;;;;;;;15.68;66.29;102013.63;5023805;28;20487;-81
2021/09/23 04:55:05;;;;;;;0.13;0.13;;;;;;;15.70;66.46;102014.44;5016851;28;20362;-81
2021/09/23 04:57:33;;;;;;;1.23;1.23;;;;;;;15.65;66.21;101994.97;5033289;28;20022;-80
2021/09/23 05:00:00;;;;;;;0.88;0.88;;;;;;;15.67;66.90;101991.34;5023678;28;20071;-80
2021/09/23 05:02:31;;;;;;;2.00;1.48;;;;;;;15.70;67.62;101995.75;5026543;28;20477;-82
2021/09/23 05:04:57;;;;;;;2.33;2.22;;;;;;;15.71;66.31;101992.16;5030925;28;20033;-80
2021/09/23 05:07:23;;;;;;;1.23;1.17;;;;;;;15.71;68.36;102001.97;5019916;28;20084;-80
2021/09/23 05:09:51;;;;;;;0.40;0.40;;;;;;;15.71;68.38;102002.84;5032015;28;20034;-83
2021/09/23 05:12:18;;;;;;;0.95;0.73;;;;;;;15.80;68.37;102002.66;5023376;28;20025;-81
2021/09/23 05:14:45;;;;;;;1.27;1.27;;;;;;;15.87;67.53;101991.84;5028773;28;20033;-80
2021/09/23 05:17:11;;;;;;;0.65;0.65;;;;;;;15.83;68.82;101996.38;5021832;28;20053;-81
2021/09/23 05:19:37;;;;;;;2.92;2.75;;;;;;;15.90;68.15;101991.75;5032906;28;20040;-81
2021/09/23 05:22:05;;;;;;;1.05;1.05;;;;;;;15.90;68.64;101981.97;5024245;28;20488;-81
2021/09/23 05:24:31;;;;;;;1.23;1.23;;;;;;;15.91;66.74;101980.16;5018811;28;20045;-80
2021/09/23 05:27:04;;;;;;;1.27;1.27;;;;;;;15.96;67.04;101980.94;5032005;28;20069;-82
2021/09/23 05:29:31;;;;;;;1.98;1.88;;;;;;;15.96;68.76;101979.16;5021342;28;20049;-81
2021/09/23 05:31:57;;;;;;;0.85;0.85;;;;;;;15.99;67.82;101978.19;5031024;28;20026;-84
2021/09/23 05:34:24;;;;;;;1.02;0.93;;;;;;;16.02;68.20;101975.44;5017516;28;20084;-85
2021/09/23 05:36:50;;;;;;;0.50;0.50;;;;;;;16.00;68.10;101979.97;5030217;28;20036;-81
2021/09/23 05:39:16;;;;;;;2.03;1.70;;;;;;;16.07;68.94;101978.88;5020011;28;20034;-82
2021/09/23 05:41:43;;;;;;;0.25;0.25;;;;;;;16.10;68.56;101973.47;5031889;28;20022;-82
2021/09/23 05:44:10;;;;;;;0.40;0.40;;;;;;;16.16;67.99;101975.97;5018775;28;20038;-83
2021/09/23 05:46:36;;;;;;;0.90;0.90;;;;;;;16.18;68.32;101976.78;5030431;28;20022;-82
2021/09/23 05:49:03;;;;;;;2.00;1.80;;;;;;;16.23;67.96;101973.16;5019859;28;20095;-83
2021/09/23 05:51:32;;;;;;;3.50;3.30;;;;;;;16.35;68.97;101964.81;5032300;28;20388;-83
2021/09/23 05:53:58;;;;;;;5.72;1.70;;;;;;;16.33;67.94;101959.47;5023741;28;20128;-81
2021/09/23 05:56:24;;;;;;;1.25;1.20;;;;;;;16.41;68.24;101964.66;5036352;28;20104;-82
2021/09/23 05:58:52;;;;;;;3.40;1.10;;;;;;;16.41;68.47;101964.66;5024439;28;20128;-83
2021/09/23 06:01:18;;;;;;;0.52;0.52;;;;;;;16.41;69.03;101971.78;5016172;28;20030;-82
2021/09/23 06:03:44;;;;;;;2.45;0.75;;;;;;;16.54;67.79;101973.22;5018983;28;20033;-84
2021/09/23 06:06:10;;;;;;;1.05;1.05;;;;;;;16.54;68.49;101967.00;5027184;28;20619;-83
2021/09/23 06:08:36;;;;;;;1.27;1.17;;;;;;;16.50;67.54;101969.75;5023541;28;20052;-82
2021/09/23 06:11:02;;;;;;;2.10;2.00;;;;;;;16.52;68.90;101969.69;5022737;28;20034;-84
2021/09/23 06:13:28;;;;;;;0.57;0.57;;;;;;;16.58;69.04;101974.88;5017148;28;20453;-78
2021/09/23 06:15:57;;;;;;;0.75;0.75;;;;;;;16.65;68.11;101979.13;5025850;28;20026;-89
2021/09/23 06:18:23;;;;;;;0.28;0.28;;;;;;;16.74;68.70;101978.00;5020835;28;20029;-91
2021/09/23 06:20:49;;;;;;;11.05;3.05;;;;;;;16.75;68.49;101982.44;5022196;28;20480;-88
2021/09/23 06:23:16;;;;;;;1.40;1.38;;;;;;;16.81;68.04;101982.28;5036057;28;20087;-88
2021/09/23 06:25:42;;;;;;;0.30;0.30;;;;;;;16.92;68.40;101983.78;5027760;28;20041;-89
2021/09/23 06:28:09;;;;;;;8.05;4.05;;;;;;;16.93;68.34;101985.56;5024909;28;20033;-87
2021/09/23 06:30:35;;;;;;;13.95;2.50;;;;;;;16.93;69.18;101980.22;5022370;28;20481;-86
2021/09/23 06:33:01;;;;;;;0.75;0.75;;;;;;;17.03;68.98;101981.69;5020548;28;20537;-85
2021/09/23 06:35:27;;;;;;;0.60;0.60;;;;;;;17.02;69.42;101974.56;5024790;28;20040;-90
2021/09/23 06:37:53;;;;;;;1.02;0.88;;;;;;;17.19;68.49;101968.72;5020760;28;20026;-88
2021/09/23 06:40:20;;;;;;;0.85;0.85;;;;;;;17.13;69.11;101967.13;5026572;28;20029;-84
2021/09/23 06:42:46;;;;;;;1.15;1.15;;;;;;;17.21;68.49;101968.69;5025795;28;20034;-88
2021/09/23 06:45:13;;;;;;;1.38;1.38;;;;;;;17.21;69.23;101963.31;5029128;28;20057;-86
2021/09/23 06:47:39;;;;;;;0.95;0.95;;;;;;;17.32;68.68;101955.88;5014876;28;20034;-93
2021/09/23 06:50:06;;;;;;;0.10;0.10;;;;;;;17.29;68.59;101961.31;5015106;28;20038;-91
2021/09/23 06:52:33;;;;;;;0.13;0.13;;;;;;;17.43;68.58;101967.13;5030633;28;20080;-93
2021/09/23 06:54:59;;;;;;;0.77;0.73;;;;;;;17.40;69.08;101967.19;5015376;28;20025;-92
2021/09/23 06:57:26;;;;;;;2.05;1.40;;;;;;;17.49;68.19;101957.13;5015048;28;20040;-90
2021/09/23 06:59:54;;;;;;;0.85;0.85;;;;;;;17.51;68.64;101958.84;5037663;28;20057;-92
2021/09/23 07:02:20;;;;;;;2.22;1.27;;;;;;;17.58;68.05;101949.69;5019645;28;20034;-92
2021/09/23 07:04:46;;;;;;;3.40;1.20;;;;;;;17.63;68.38;101944.16;5014736;28;20038;-84
2021/09/23 07:07:12;;;;;;;0.98;0.98;;;;;;;17.65;68.35;101941.47;5017635;28;20038;-87
2021/09/23 07:09:38;;;;;;;1.75;1.65;;;;;;;17.75;68.04;101932.19;5024692;28;20496;-89
2021/09/23 07:12:05;;;;;;;1.00;0.98;;;;;;;17.74;68.42;101933.09;5033759;28;20490;-87
2021/09/23 07:14:31;;;;;;;1.15;1.08;;;;;;;17.81;68.17;101937.34;5033493;28;20026;-90
2021/09/23 07:16:57;;;;;;;0.22;0.22;;;;;;;17.83;68.18;101940.84;5034048;28;20510;-88
2021/09/23 07:19:23;;;;;;;0.55;0.55;;;;;;;17.89;68.09;101945.13;5023143;28;20148;-88
2021/09/23 07:21:49;;;;;;;7.60;2.58;;;;;;;17.85;68.11;101943.47;5018911;28;20033;-90
2021/09/23 07:24:16;;;;;;;0.80;0.80;;;;;;;18.06;67.70;101947.28;5026521;28;20045;-90
2021/09/23 07:26:42;;;;;;;0.77;0.77;;;;;;;18.11;67.98;101935.44;5034383;28;20108;-90
2021/09/23 07:29:09;;;;;;;0.45;0.45;;;;;;;18.18;67.77;101924.50;5034288;28;20480;-86
2021/09/23 07:31:35;;;;;;;0.93;0.93;;;;;;;18.25;67.77;101931.44;5034180;28;20048;-88
2021/09/23 07:34:01;;;;;;;2.08;1.13;;;;;;;18.29;67.68;101910.72;5034212;28;20057;-86
2021/09/23 07:36:29;;;;;;;1.85;1.30;;;;;;;18.15;67.96;101905.88;5032673;28;20026;-90
2021/09/23 07:38:55;;;;;;;3.03;1.70;;;;;;;18.28;67.51;101893.78;5029363;28;20034;-90
2021/09/23 07:41:21;;;;;;;2.53;1.42;;;;;;;18.34;67.48;101893.53;5026071;28;20026;-90
2021/09/23 07:43:47;;;;;;;2.80;2.60;;;;;;;18.39;67.64;101883.53;5033583;28;20029;-88
2021/09/23 07:46:13;;;;;;;0.43;0.43;;;;;;;18.50;67.42;101887.63;5034100;28;20029;-90
2021/09/23 07:48:39;;;;;;;0.82;0.82;;;;;;;18.50;67.56;101879.56;5034342;28;20029;-88
2021/09/23 07:51:05;;;;;;;0.60;0.60;;;;;;;18.52;67.34;101865.16;5033761;28;20041;-89
2021/09/23 07:53:35;;;;;;;0.75;0.75;;;;;;;18.60;67.36;101859.50;5034077;28;20104;-90
2021/09/23 07:58:40;;;;;;;37.70;1.67;;;;;;;18.78;67.01;101875.84;5031868;28;20053;-81
2021/09/23 08:01:06;;;;;;;1.83;1.70;;;;;;;18.82;66.71;101866.75;5033804;28;20453;-79
2021/09/23 08:03:32;;;;;;;2.22;1.40;;;;;;;18.96;66.52;101877.84;5033432;28;20042;-80
2021/09/23 08:05:59;;;;;;;4.13;1.17;;;;;;;19.15;66.28;101882.50;5033121;28;20029;-81
2021/09/23 08:08:25;;;;;;;1.95;1.48;;;;;;;19.23;65.97;101883.09;5014659;28;20045;-80
2021/09/23 08:10:51;;;;;;;1.15;1.13;;;;;;;19.43;65.72;101881.38;5014048;28;20030;-83
2021/09/23 08:13:17;;;;;;;0.63;0.63;;;;;;;19.60;65.45;101886.97;5013848;28;20377;-82
2021/09/23 08:15:43;;;;;;;1.23;1.13;;;;;;;19.67;65.07;101883.06;5013815;28;20374;-80
2021/09/23 08:18:10;;;;;;;0.63;0.63;;;;;;;19.85;64.69;101896.72;5013641;28;20466;-83
2021/09/23 08:20:36;;;;;;;1.65;1.55;;;;;;;19.93;64.02;101901.78;5012738;28;20038;-80
2021/09/23 08:23:03;;;;;;;0.10;0.10;;;;;;;20.02;63.72;101907.63;5009415;28;20076;-82
2021/09/23 08:25:30;;;;;;;1.85;1.75;;;;;;;20.24;63.27;101917.47;5008568;28;20034;-79
2021/09/23 08:27:56;;;;;;;0.50;0.50;;;;;;;20.15;61.13;101920.53;5013599;28;20041;-80
2021/09/23 08:30:22;;;;;;;0.40;0.40;;;;;;;20.18;61.22;101920.44;5017541;28;20404;-79
2021/09/23 08:32:48;;;;;;;0.30;0.30;;;;;;;20.28;60.35;101924.44;5017335;28;20029;-81
2021/09/23 08:35:15;;;;;;;0.85;0.85;;;;;;;20.49;60.50;101916.38;5017132;28;20034;-79
2021/09/23 08:37:42;;;;;;;3.25;1.20;;;;;;;20.60;60.34;101913.19;5016757;28;20080;-78
2021/09/23 08:40:10;;;;;;;1.25;1.15;;;;;;;20.31;58.85;101915.38;5015362;28;20076;-81
2021/09/23 08:42:38;;;;;;;0.77;0.77;;;;;;;20.23;58.35;101923.78;4998504;28;20040;-80
2021/09/23 08:45:07;;;;;;;0.20;0.20;;;;;;;20.46;57.67;101913.81;5016862;28;20084;-80
2021/09/23 08:47:34;;;;;;;0.10;0.10;;;;;;;20.44;57.23;101932.72;5015659;28;20046;-81
2021/09/23 08:50:02;;;;;;;0.10;0.10;;;;;;;20.53;56.26;101931.44;5016827;28;20038;-80
2021/09/23 08:52:29;;;;;;;0.10;0.10;;;;;;;20.35;56.05;101947.47;5017874;28;20141;-78
2021/09/23 08:54:55;;;;;;;0.03;0.03;;;;;;;20.75;55.76;101942.16;5017476;28;20113;-82
2021/09/23 08:57:22;;;;;;;0.30;0.30;;;;;;;20.68;55.57;101944.22;5015808;28;20060;-80
2021/09/23 08:59:48;;;;;;;1.65;1.55;;;;;;;20.71;55.87;101939.63;5017180;28;20034;-81
2021/09/23 09:02:24;;;;;;;0.10;0.10;;;;;;;20.87;55.77;101929.94;5017073;28;20034;-82
2021/09/23 09:04:52;;;;;;;0.10;0.10;;;;;;;20.76;55.76;101933.16;5016475;28;20030;-79
2021/09/23 09:07:28;;;;;;;0.20;0.20;;;;;;;20.75;55.63;101928.69;5016338;28;20435;-78
2021/09/23 09:10:11;;;;;;;1.85;0.57;;;;;;;20.76;54.17;101917.00;5016542;28;20120;-80
2021/09/23 09:12:41;;;;;;;0.10;0.10;;;;;;;20.62;53.96;101924.78;5018866;28;20037;-81
2021/09/23 09:15:08;;;;;;;0.10;0.10;;;;;;;20.81;54.09;101914.06;5016841;28;20045;-80
2021/09/23 09:17:35;;;;;;;0.45;0.45;;;;;;;20.76;54.47;101926.88;5016475;28;20022;-79
2021/09/23 09:20:05;;;;;;;0.20;0.20;;;;;;;20.75;54.39;101908.94;5016855;28;20065;-80
2021/09/23 09:22:33;;;;;;;0.05;0.05;;;;;;;20.80;54.78;101910.50;5016593;28;20354;-81
2021/09/23 09:25:03;;;;;;;0.10;0.10;;;;;;;20.88;54.62;101895.81;5016274;28;20145;-82
2021/09/23 09:27:33;;;;;;;0.15;0.15;;;;;;;21.15;54.37;101896.31;5016760;28;20026;-80
2021/09/23 09:32:52;;;;;;;0.10;0.10;;;;;;;21.26;53.50;101903.88;5067212;27;20456;-82
2021/09/23 09:38:06;;;;;;;0.10;0.10;;;;;;;21.45;52.72;101903.88;5075482;27;20453;-83
2021/09/23 09:40:35;;;;;;;0.17;0.17;;;;;;;21.34;52.46;101907.94;5071525;28;20102;-82
2021/09/23 09:43:04;;;;;;;0.17;0.17;;;;;;;21.33;52.48;101913.41;5071512;28;20028;-84
2021/09/23 09:45:31;;;;;;;0.10;0.10;;;;;;;21.36;52.36;101909.69;5070133;28;20091;-84
2021/09/23 09:47:58;;;;;;;0.20;0.20;;;;;;;21.30;52.38;101921.66;5050842;28;20040;-81
2021/09/23 09:50:28;;;;;;;0.50;0.50;;;;;;;21.42;52.01;101931.84;5049759;28;20026;-83
2021/09/23 09:53:01;;;;;;;0.10;0.10;;;;;;;21.42;51.46;101920.19;5068325;28;20025;-83
2021/09/23 09:55:32;;;;;;;0.20;0.20;;;;;;;21.46;50.82;101911.88;5069595;28;20082;-85
2021/09/23 09:58:00;;;;;;;0.13;0.13;;;;;;;21.39;51.24;101910.44;5070552;28;20033;-83
2021/09/23 10:00:28;;;;;;;0.22;0.22;;;;;;;21.41;51.40;101908.53;5069957;28;20036;-81
2021/09/23 10:02:54;;;;;;;0.40;0.40;;;;;;;21.18;51.57;101920.41;5069683;28;20468;-80
2021/09/23 10:05:21;;;;;;;0.45;0.45;;;;;;;21.10;51.30;101917.25;5069410;28;20462;-82
2021/09/23 10:07:50;;;;;;;0.40;0.40;;;;;;;21.26;51.30;101914.66;5068082;28;20131;-80
2021/09/23 10:10:18;;;;;;;0.10;0.10;;;;;;;21.23;51.29;101925.59;5057817;28;20029;-82
2021/09/23 10:12:48;;;;;;;0.17;0.17;;;;;;;21.11;51.22;101922.53;5057964;28;20033;-77
2021/09/23 10:15:17;;;;;;;0.03;0.03;;;;;;;21.05;50.99;101925.53;5058553;28;20025;-80
2021/09/23 10:17:47;;;;;;;0.50;0.50;;;;;;;21.21;50.82;101920.28;5064693;28;20037;-81
2021/09/23 10:20:16;;;;;;;0.10;0.10;;;;;;;21.01;51.10;101919.41;5064047;28;20380;-80
2021/09/23 10:22:43;;;;;;;0.10;0.10;;;;;;;21.08;50.91;101933.44;5064819;28;20491;-82
2021/09/23 10:25:14;;;;;;;0.35;0.35;;;;;;;21.26;51.06;101925.44;5058970;28;20044;-83
2021/09/23 10:27:58;;;;;;;0.10;0.10;;;;;;;20.99;51.24;101925.81;5057863;28;20189;-82
2021/09/23 10:30:28;;;;;;;0.30;0.30;;;;;;;21.26;50.62;101925.44;5059047;28;20049;-83
2021/09/23 10:32:57;;;;;;;0.43;0.43;;;;;;;21.30;50.61;101917.13;5060217;28;20032;-80
2021/09/23 10:35:24;;;;;;;0.10;0.10;;;;;;;21.19;51.09;101913.22;5055861;28;20031;-84
2021/09/23 10:37:54;;;;;;;0.10;0.10;;;;;;;21.34;51.09;101923.25;5058351;28;20052;-78
2021/09/23 10:40:22;;;;;;;0.40;0.40;;;;;;;21.02;51.36;101917.56;5050041;28;20021;-83
2021/09/23 10:42:52;;;;;;;0.15;0.15;;;;;;;21.26;51.49;101910.16;5056048;28;20037;-83
2021/09/23 10:45:25;;;;;;;0.52;0.52;;;;;;;21.32;51.07;101904.47;5052823;28;20036;-77
2021/09/23 10:47:55;;;;;;;0.77;0.77;;;;;;;21.45;51.08;101901.19;5051279;28;20111;-83
2021/09/23 10:50:25;;;;;;;0.10;0.10;;;;;;;21.53;50.31;101901.66;5043493;28;20034;-83
2021/09/23 10:52:54;;;;;;;2.42;0.85;;;;;;;21.57;49.61;101903.31;5043797;28;20029;-82
2021/09/23 10:55:22;;;;;;;0.10;0.10;;;;;;;21.81;49.32;101900.31;5038571;28;20155;-82
2021/09/23 10:57:48;;;;;;;0.70;0.70;;;;;;;21.72;49.27;101900.78;5035503;28;20037;-82
2021/09/23 11:00:16;;;;;;;1.30;1.23;;;;;;;21.74;48.90;101891.66;5035282;28;20029;-82
2021/09/23 11:02:42;;;;;;;0.40;0.40;;;;;;;21.86;49.20;101881.19;5035295;28;20128;-84
2021/09/23 11:05:12;;;;;;;0.28;0.25;;;;;;;21.92;49.18;101870.06;5035164;28;20481;-82
2021/09/23 11:07:42;;;;;;;0.30;0.30;;;;;;;22.15;48.80;101855.38;5035232;28;20120;-81
2021/09/23 11:10:13;;;;;;;0.10;0.10;;;;;;;22.22;48.90;101867.63;5053836;28;20025;-83
2021/09/23 11:12:42;;;;;;;0.10;0.10;;;;;;;22.21;48.55;101863.16;5055353;28;20029;-83
2021/09/23 11:15:11;;;;;;;0.10;0.10;;;;;;;22.28;47.60;101851.09;5055754;28;20158;-84
2021/09/23 11:17:39;;;;;;;0.10;0.10;;;;;;;22.42;48.02;101863.03;5054846;28;20241;-81
2021/09/23 11:20:10;;;;;;;0.10;0.10;;;;;;;22.46;47.48;101856.47;5055204;28;20079;-84
2021/09/23 11:22:40;;;;;;;0.10;0.10;;;;;;;22.54;46.95;101856.94;5046141;28;20037;-84
2021/09/23 11:25:10;;;;;;;1.33;1.23;;;;;;;22.45;46.80;101852.03;5038531;28;20029;-83
2021/09/23 11:27:38;;;;;;;0.85;0.85;;;;;;;22.70;47.06;101845.28;5035415;28;20033;-84
2021/09/23 11:30:07;;;;;;;0.17;0.17;;;;;;;22.89;46.52;101828.91;5035203;28;20021;-85
2021/09/23 11:35:33;;;;;;;0.10;0.10;;;;;;;23.16;46.57;101842.72;5088756;27;20412;-82
2021/09/23 11:38:00;;;;;;;0.10;0.10;;;;;;;23.17;46.60;101833.66;5055301;28;20037;-82